Time;durP1;ratioP1;P1;durP2;ratioP2;P2;SDS_P1;SDS_P2;PMS_P1;PMS_P2;Temp;Humidity;BMP_temperature;BMP_pressure;BME280_temperature;BME280_humidity;BME280_pressure;Samples;Min_cycle;Max_cycle;Signal;HPM_P1;HPM_P2
2023/08/13 00:01:32;;;;;;;8.15;5.50;;;;;;;17.69;100.00;94300.16;4940503;28;20360;-63
2023/08/13 00:03:59;;;;;;;8.10;5.50;;;;;;;17.68;100.00;94304.91;4909520;28;20412;-63
2023/08/13 00:06:26;;;;;;;8.73;5.37;;;;;;;17.70;100.00;94298.91;4976301;28;20478;-65
2023/08/13 00:08:53;;;;;;;7.40;5.40;;;;;;;17.69;100.00;94294.59;4909702;28;20044;-65
2023/08/13 00:11:20;;;;;;;10.18;6.60;;;;;;;17.62;100.00;94290.06;4908217;28;20070;-63
2023/08/13 00:13:47;;;;;;;9.38;5.95;;;;;;;17.59;100.00;94293.75;4909536;28;20066;-65
2023/08/13 00:16:13;;;;;;;10.32;6.10;;;;;;;17.57;100.00;94285.13;4913466;28;20048;-63
2023/08/13 00:18:40;;;;;;;8.53;5.60;;;;;;;17.60;100.00;94297.31;4943242;28;20046;-65
2023/08/13 00:21:07;;;;;;;10.90;5.70;;;;;;;17.50;100.00;94294.44;4949634;28;20295;-63
2023/08/13 00:23:34;;;;;;;9.90;6.22;;;;;;;17.42;100.00;94293.16;4926334;28;20053;-62
2023/08/13 00:26:02;;;;;;;9.73;6.15;;;;;;;17.16;100.00;94293.28;4909109;28;20490;-64
2023/08/13 00:28:30;;;;;;;10.27;5.60;;;;;;;17.19;100.00;94286.06;4909654;28;20040;-62
2023/08/13 00:30:56;;;;;;;8.90;5.50;;;;;;;17.25;100.00;94298.13;4908094;28;20067;-63
2023/08/13 00:33:23;;;;;;;7.93;5.60;;;;;;;17.29;100.00;94298.78;4909668;28;20066;-64
2023/08/13 00:35:53;;;;;;;10.18;6.38;;;;;;;17.35;100.00;94293.44;4908853;28;20064;-62
2023/08/13 00:38:19;;;;;;;8.50;5.60;;;;;;;17.41;100.00;94293.63;4909331;28;20048;-63
2023/08/13 00:40:46;;;;;;;11.45;5.90;;;;;;;17.43;100.00;94291.94;4907780;29;20052;-62
2023/08/13 00:43:13;;;;;;;8.30;5.83;;;;;;;17.41;100.00;94288.09;4909688;28;20036;-62
2023/08/13 00:45:40;;;;;;;10.02;5.93;;;;;;;17.35;100.00;94282.34;4924476;28;20346;-63
2023/08/13 00:48:08;;;;;;;10.43;5.78;;;;;;;17.35;100.00;94274.78;4923508;28;20070;-65
2023/08/13 00:50:36;;;;;;;8.13;5.60;;;;;;;17.34;100.00;94289.09;4909614;28;20063;-63
2023/08/13 00:53:06;;;;;;;9.48;6.03;;;;;;;17.27;100.00;94281.03;4908833;28;20048;-65
2023/08/13 00:55:33;;;;;;;7.83;5.33;;;;;;;17.28;100.00;94291.66;4901320;28;20406;-63
2023/08/13 00:58:00;;;;;;;8.32;5.80;;;;;;;17.06;100.00;94293.63;4890779;28;20127;-64
2023/08/13 01:00:27;;;;;;;7.15;5.15;;;;;;;16.86;100.00;94291.13;4906908;28;20056;-66
2023/08/13 01:02:54;;;;;;;8.73;5.65;;;;;;;16.77;100.00;94295.34;4909075;28;20453;-65
2023/08/13 01:05:27;;;;;;;9.63;5.97;;;;;;;16.47;100.00;94307.03;4909332;29;20392;-64
2023/08/13 01:08:02;;;;;;;23.27;14.77;;;;;;;16.57;100.00;94298.38;4908942;28;20066;-65
2023/08/13 01:10:36;;;;;;;13.68;9.13;;;;;;;16.66;100.00;94292.16;4909322;29;20056;-64
2023/08/13 01:13:10;;;;;;;8.90;6.53;;;;;;;16.70;100.00;94298.38;4908579;28;20118;-64
2023/08/13 01:15:39;;;;;;;8.55;5.97;;;;;;;16.60;100.00;94296.72;4910268;28;20444;-64
2023/08/13 01:18:07;;;;;;;8.65;6.00;;;;;;;16.62;100.00;94294.28;4910180;28;20370;-66
2023/08/13 01:20:36;;;;;;;9.47;5.60;;;;;;;16.77;100.00;94303.66;4909372;29;20055;-63
2023/08/13 01:23:04;;;;;;;9.98;6.22;;;;;;;16.91;100.00;94296.13;4908845;28;20102;-65
2023/08/13 01:25:32;;;;;;;9.00;5.93;;;;;;;16.99;100.00;94297.44;4908482;29;20052;-63
2023/08/13 01:28:17;;;;;;;9.15;6.00;;;;;;;17.10;100.00;94292.31;4908627;28;20485;-66
2023/08/13 01:30:52;;;;;;;8.68;5.93;;;;;;;17.21;100.00;94294.69;4908640;28;20044;-63
2023/08/13 01:33:30;;;;;;;9.77;5.93;;;;;;;17.27;100.00;94292.13;4909441;28;20062;-64
2023/08/13 01:36:00;;;;;;;9.38;5.95;;;;;;;17.27;100.00;94292.13;4908691;28;20395;-63
2023/08/13 01:38:29;;;;;;;9.50;6.10;;;;;;;17.31;100.00;94295.56;4909069;28;20058;-65
2023/08/13 01:41:03;;;;;;;91.78;58.17;;;;;;;17.34;100.00;94289.88;4908518;28;20062;-63
2023/08/13 01:43:29;;;;;;;20.38;13.07;;;;;;;17.31;100.00;94287.22;4908793;28;20040;-64
2023/08/13 01:45:59;;;;;;;9.27;6.40;;;;;;;17.26;100.00;94276.69;4908563;28;20186;-63
2023/08/13 01:48:26;;;;;;;8.88;6.20;;;;;;;17.20;100.00;94278.50;4908777;28;20645;-65
2023/08/13 01:50:53;;;;;;;9.68;6.50;;;;;;;17.23;100.00;94280.38;4910438;28;20044;-63
2023/08/13 01:53:20;;;;;;;8.82;5.82;;;;;;;17.13;100.00;94271.97;4912069;28;20044;-63
2023/08/13 01:55:46;;;;;;;7.45;5.80;;;;;;;17.12;100.00;94264.09;4941807;28;20052;-64
2023/08/13 01:58:13;;;;;;;8.07;5.73;;;;;;;17.14;100.00;94278.28;4912341;28;20059;-62
2023/08/13 02:00:40;;;;;;;9.82;5.97;;;;;;;16.96;100.00;94278.91;4926301;28;20381;-62
2023/08/13 02:03:07;;;;;;;9.43;6.00;;;;;;;16.80;100.00;94279.81;4911186;28;20050;-62
2023/08/13 02:05:33;;;;;;;8.48;5.72;;;;;;;16.62;100.00;94283.19;4911711;29;20052;-61
2023/08/13 02:08:00;;;;;;;9.10;6.30;;;;;;;16.65;100.00;94276.75;4911074;28;20083;-64
2023/08/13 02:10:27;;;;;;;9.60;6.47;;;;;;;16.46;100.00;94269.44;4911492;28;20498;-65
2023/08/13 02:12:54;;;;;;;10.55;6.00;;;;;;;16.68;100.00;94262.00;4910892;28;20040;-63
2023/08/13 02:15:20;;;;;;;10.88;6.93;;;;;;;16.80;100.00;94263.19;4911931;28;20075;-63
2023/08/13 02:17:47;;;;;;;9.93;6.30;;;;;;;16.84;100.00;94276.94;4907414;28;20155;-64
2023/08/13 02:20:14;;;;;;;8.40;6.40;;;;;;;16.70;100.00;94269.84;4902114;29;20436;-63
2023/08/13 02:22:41;;;;;;;8.57;5.87;;;;;;;16.82;100.00;94265.53;4904979;28;20052;-62
2023/08/13 02:25:07;;;;;;;9.52;6.45;;;;;;;16.81;100.00;94264.75;4911490;28;20063;-62
2023/08/13 02:27:34;;;;;;;9.38;6.38;;;;;;;16.57;100.00;94267.13;4911254;28;20054;-63
2023/08/13 02:30:03;;;;;;;9.18;6.38;;;;;;;16.65;100.00;94265.66;4910907;29;20048;-65
2023/08/13 02:32:30;;;;;;;10.75;6.68;;;;;;;16.66;100.00;94275.53;4909963;29;20050;-63
2023/08/13 02:34:57;;;;;;;8.20;5.93;;;;;;;16.67;100.00;94277.06;4910752;28;20044;-62
2023/08/13 02:37:24;;;;;;;9.73;6.22;;;;;;;16.74;100.00;94270.50;4911355;28;20036;-65
2023/08/13 02:39:50;;;;;;;8.75;6.40;;;;;;;16.66;100.00;94277.50;4910698;28;20097;-63
2023/08/13 02:42:17;;;;;;;8.82;6.60;;;;;;;16.36;100.00;94269.38;4925317;29;20048;-63
2023/08/13 02:44:44;;;;;;;8.95;6.50;;;;;;;16.32;100.00;94265.16;4911202;28;20052;-65
2023/08/13 02:47:10;;;;;;;9.80;6.73;;;;;;;16.43;100.00;94260.03;4910060;28;22114;-63
2023/08/13 02:49:37;;;;;;;9.65;6.28;;;;;;;16.56;100.00;94254.50;4910798;28;20040;-62
2023/08/13 02:52:04;;;;;;;9.40;6.35;;;;;;;16.60;100.00;94259.91;4910659;28;20109;-63
2023/08/13 02:54:31;;;;;;;10.70;6.30;;;;;;;16.61;100.00;94267.78;4911068;28;20118;-63
2023/08/13 02:56:59;;;;;;;9.48;6.30;;;;;;;16.65;100.00;94262.88;4910553;28;20044;-62
2023/08/13 02:59:26;;;;;;;9.63;6.33;;;;;;;16.32;100.00;94277.00;4912094;28;20062;-64
2023/08/13 03:01:53;;;;;;;11.55;7.00;;;;;;;16.29;100.00;94271.59;4910229;28;20078;-62
2023/08/13 03:04:19;;;;;;;9.75;6.65;;;;;;;16.21;100.00;94268.25;4912274;28;20050;-64
2023/08/13 03:06:46;;;;;;;9.68;6.80;;;;;;;16.38;100.00;94275.22;4910453;28;20052;-63
2023/08/13 03:09:20;;;;;;;10.45;7.25;;;;;;;16.47;100.00;94273.78;4910863;28;20456;-62
2023/08/13 03:11:48;;;;;;;9.23;6.50;;;;;;;16.59;100.00;94261.91;4911556;28;20086;-63
2023/08/13 03:14:15;;;;;;;12.13;7.45;;;;;;;16.36;100.00;94266.59;4900879;29;20056;-63
2023/08/13 03:16:42;;;;;;;11.73;7.55;;;;;;;16.32;100.00;94262.41;4910827;28;20044;-65
2023/08/13 03:19:09;;;;;;;11.63;6.72;;;;;;;16.57;100.00;94265.13;4895849;29;20047;-63
2023/08/13 03:21:35;;;;;;;9.98;7.05;;;;;;;16.78;100.00;94254.53;4898431;28;20497;-62
2023/08/13 03:24:03;;;;;;;10.93;6.67;;;;;;;16.82;100.00;94252.47;4909890;29;20048;-65
2023/08/13 03:26:30;;;;;;;9.23;6.63;;;;;;;16.88;100.00;94256.22;4910350;29;20070;-66
2023/08/13 03:28:57;;;;;;;10.90;7.38;;;;;;;16.89;100.00;94241.13;4910162;28;20059;-62
2023/08/13 03:31:23;;;;;;;10.23;6.50;;;;;;;17.04;100.00;94246.94;4909313;29;20048;-63
2023/08/13 03:33:50;;;;;;;10.07;6.43;;;;;;;17.13;100.00;94241.47;4909706;28;20547;-62
2023/08/13 03:36:17;;;;;;;10.40;7.00;;;;;;;17.09;100.00;94243.59;4911008;28;20044;-62
2023/08/13 03:38:44;;;;;;;11.65;7.75;;;;;;;16.68;100.00;94244.59;4911681;28;20519;-64
2023/08/13 03:41:10;;;;;;;11.38;7.15;;;;;;;16.78;100.00;94240.66;4909881;28;20389;-63
2023/08/13 03:43:37;;;;;;;10.98;7.10;;;;;;;16.92;100.00;94239.44;4910444;29;20060;-63
2023/08/13 03:46:04;;;;;;;9.35;6.80;;;;;;;16.95;100.00;94241.34;4909699;28;20942;-64
2023/08/13 03:48:31;;;;;;;8.83;6.70;;;;;;;16.98;100.00;94240.41;4910265;29;20044;-63
2023/08/13 03:50:57;;;;;;;9.23;6.80;;;;;;;16.90;100.00;94236.34;4909500;29;20055;-62
2023/08/13 03:53:24;;;;;;;9.15;6.88;;;;;;;16.71;100.00;94236.16;4910154;29;20118;-65
2023/08/13 03:55:51;;;;;;;10.98;6.93;;;;;;;16.63;100.00;94245.16;4909573;28;20051;-62
2023/08/13 03:58:18;;;;;;;10.27;7.55;;;;;;;16.57;100.00;94237.41;4930345;28;20037;-66
2023/08/13 04:00:45;;;;;;;9.47;7.00;;;;;;;16.60;100.00;94238.53;4955674;28;20048;-63
2023/08/13 04:03:11;;;;;;;10.30;7.00;;;;;;;16.69;100.00;94238.59;4911208;28;20393;-63
2023/08/13 04:05:52;;;;;;;9.82;7.13;;;;;;;16.78;100.00;94233.16;4908401;29;20040;-65
2023/08/13 04:08:18;;;;;;;13.20;8.23;;;;;;;16.78;100.00;94238.69;4910842;28;20040;-64
2023/08/13 04:10:45;;;;;;;11.30;7.53;;;;;;;16.86;100.00;94232.94;4909527;28;20049;-63
2023/08/13 04:13:12;;;;;;;9.60;6.60;;;;;;;16.87;100.00;94234.50;4909751;28;20401;-62
2023/08/13 04:15:38;;;;;;;9.05;6.65;;;;;;;16.83;100.00;94228.28;4909919;29;20371;-63
2023/08/13 04:18:06;;;;;;;9.23;6.75;;;;;;;16.77;100.00;94228.81;4901336;29;20436;-63
2023/08/13 04:20:35;;;;;;;9.50;6.90;;;;;;;16.52;100.00;94234.41;4891156;28;20047;-63
2023/08/13 04:23:02;;;;;;;10.80;7.28;;;;;;;16.40;100.00;94227.72;4905545;28;20447;-64
2023/08/13 04:25:29;;;;;;;9.33;6.97;;;;;;;16.49;100.00;94227.03;4909202;29;20050;-62
2023/08/13 04:27:56;;;;;;;10.25;7.15;;;;;;;16.58;100.00;94236.19;4907867;28;20040;-62
2023/08/13 04:30:22;;;;;;;10.38;6.50;;;;;;;16.68;100.00;94242.59;4909733;28;20768;-63
2023/08/13 04:32:54;;;;;;;9.30;6.65;;;;;;;16.77;100.00;94242.69;4908881;28;20374;-62
2023/08/13 04:35:21;;;;;;;9.70;6.78;;;;;;;16.88;100.00;94247.09;4910511;28;20048;-63
2023/08/13 04:37:49;;;;;;;10.60;6.47;;;;;;;16.96;100.00;94245.63;4909231;28;20463;-62
2023/08/13 04:40:16;;;;;;;10.18;7.03;;;;;;;16.99;100.00;94239.22;4910551;28;20501;-61
2023/08/13 04:42:43;;;;;;;9.70;6.75;;;;;;;16.89;100.00;94235.59;4909583;28;20062;-62
2023/08/13 04:45:12;;;;;;;10.35;6.57;;;;;;;16.85;100.00;94239.72;4909273;28;20040;-65
2023/08/13 04:47:39;;;;;;;10.23;6.85;;;;;;;17.02;100.00;94241.06;4909641;28;20048;-63
2023/08/13 04:50:08;;;;;;;9.40;6.70;;;;;;;17.16;100.00;94239.78;4908827;28;20054;-64
2023/08/13 04:52:35;;;;;;;9.30;6.60;;;;;;;17.31;100.00;94245.63;4909613;28;20052;-64
2023/08/13 04:55:02;;;;;;;9.75;6.72;;;;;;;17.37;100.00;94238.28;4974304;28;20044;-62
2023/08/13 04:57:29;;;;;;;11.70;6.90;;;;;;;17.13;100.00;94241.47;4909637;29;20098;-62
2023/08/13 04:59:58;;;;;;;9.00;6.88;;;;;;;17.06;100.00;94257.59;4908727;28;20044;-64
2023/08/13 05:02:25;;;;;;;8.83;6.50;;;;;;;17.11;100.00;94257.78;4909063;28;20044;-63
2023/08/13 05:04:52;;;;;;;11.40;7.20;;;;;;;16.94;100.00;94248.09;4909543;28;20349;-65
2023/08/13 05:07:18;;;;;;;14.93;8.70;;;;;;;16.45;100.00;94231.91;4933529;28;20046;-62
2023/08/13 05:09:45;;;;;;;10.75;7.68;;;;;;;16.49;100.00;94247.19;4949353;28;20052;-65
2023/08/13 05:12:12;;;;;;;11.15;7.82;;;;;;;16.69;100.00;94248.91;4923418;29;20040;-62
2023/08/13 05:14:39;;;;;;;12.63;7.67;;;;;;;16.95;100.00;94250.41;4907759;28;20058;-62
2023/08/13 05:17:19;;;;;;;13.20;8.05;;;;;;;17.11;100.00;94243.16;4907355;28;20067;-64
2023/08/13 05:19:46;;;;;;;12.57;7.68;;;;;;;17.30;100.00;94247.59;4923104;28;20040;-62
2023/08/13 05:22:13;;;;;;;12.43;8.35;;;;;;;17.04;100.00;94258.03;4975844;28;20048;-63
2023/08/13 05:24:40;;;;;;;11.80;7.95;;;;;;;17.10;100.00;94252.69;4909212;29;20049;-65
2023/08/13 05:27:07;;;;;;;11.83;7.20;;;;;;;16.87;100.00;94257.44;4912985;28;20048;-63
2023/08/13 05:29:34;;;;;;;10.02;7.03;;;;;;;17.04;100.00;94263.56;4913429;28;20060;-66
2023/08/13 05:32:02;;;;;;;10.82;7.15;;;;;;;17.07;100.00;94265.47;4911625;28;20060;-63
2023/08/13 05:34:28;;;;;;;10.25;7.57;;;;;;;17.27;100.00;94270.72;4913829;28;20044;-63
2023/08/13 05:36:55;;;;;;;10.02;7.40;;;;;;;17.50;100.00;94272.25;4912612;28;20137;-62
2023/08/13 05:39:23;;;;;;;13.37;7.50;;;;;;;17.37;100.00;94282.66;4911991;28;20044;-65
2023/08/13 05:41:49;;;;;;;11.73;8.30;;;;;;;17.35;100.00;94285.88;4911750;28;20044;-65
2023/08/13 05:44:16;;;;;;;13.25;8.57;;;;;;;17.26;100.00;94294.09;4912285;28;20044;-63
2023/08/13 05:46:43;;;;;;;11.32;7.93;;;;;;;17.51;100.00;94296.00;4912640;28;20412;-63
2023/08/13 05:49:10;;;;;;;14.52;8.40;;;;;;;17.16;100.00;94295.25;4910205;28;20050;-64
2023/08/13 05:51:37;;;;;;;11.13;7.90;;;;;;;17.65;100.00;94286.41;4926307;29;20516;-62
2023/08/13 05:54:04;;;;;;;10.00;7.72;;;;;;;17.93;100.00;94286.59;4910259;28;20061;-63
2023/08/13 05:56:30;;;;;;;10.95;7.50;;;;;;;18.25;100.00;94276.25;4911879;28;20498;-63
2023/08/13 05:58:57;;;;;;;10.48;7.93;;;;;;;18.51;100.00;94271.25;4911530;28;20055;-63
2023/08/13 06:01:24;;;;;;;11.52;7.93;;;;;;;18.69;100.00;94270.50;4946665;28;20049;-66
2023/08/13 06:03:50;;;;;;;10.43;7.50;;;;;;;18.82;100.00;94259.31;4892471;28;20052;-64
2023/08/13 06:06:18;;;;;;;10.65;7.28;;;;;;;18.96;100.00;94265.03;4908261;29;20052;-63
2023/08/13 06:08:45;;;;;;;10.82;7.90;;;;;;;19.09;100.00;94259.31;4977063;28;20040;-63
2023/08/13 06:11:12;;;;;;;12.43;8.05;;;;;;;19.24;100.00;94256.72;4911351;28;20052;-65
2023/08/13 06:13:41;;;;;;;10.55;7.80;;;;;;;19.34;100.00;94263.06;4925969;29;20060;-65
2023/08/13 06:16:07;;;;;;;12.10;7.30;;;;;;;19.55;100.00;94262.09;4911127;28;20547;-66
2023/08/13 06:18:34;;;;;;;11.52;7.28;;;;;;;19.86;100.00;94252.81;4911428;28;20051;-65
2023/08/13 06:21:03;;;;;;;12.00;7.43;;;;;;;20.17;100.00;94251.78;4911204;28;20521;-63
2023/08/13 06:23:31;;;;;;;11.15;7.32;;;;;;;20.45;100.00;94254.44;4912499;28;20105;-64
2023/08/13 06:25:58;;;;;;;10.57;6.88;;;;;;;20.66;100.00;94252.66;4910955;28;20118;-63
2023/08/13 06:28:24;;;;;;;10.50;7.00;;;;;;;20.99;100.00;94254.63;4911504;28;20052;-64
2023/08/13 06:30:51;;;;;;;12.65;7.70;;;;;;;21.15;100.00;94251.44;4912542;28;20048;-66
2023/08/13 06:33:19;;;;;;;8.65;6.82;;;;;;;21.54;100.00;94249.41;4911407;28;20056;-63
2023/08/13 06:35:46;;;;;;;9.02;6.53;;;;;;;21.75;100.00;94266.28;4910226;28;20449;-64
2023/08/13 06:38:14;;;;;;;9.13;7.07;;;;;;;21.39;100.00;94256.97;4911274;28;20048;-64
2023/08/13 06:40:42;;;;;;;10.30;7.03;;;;;;;21.89;100.00;94253.56;4912538;28;20058;-63
2023/08/13 06:43:10;;;;;;;12.20;7.18;;;;;;;22.05;100.00;94252.31;4910660;29;20040;-63
2023/08/13 06:45:37;;;;;;;9.70;6.95;;;;;;;22.16;100.00;94249.72;4911918;28;20114;-64
2023/08/13 06:48:04;;;;;;;9.70;7.35;;;;;;;22.17;100.00;94247.69;4910694;28;20052;-63
2023/08/13 06:50:31;;;;;;;10.30;6.70;;;;;;;22.63;100.00;94249.94;4911230;29;20052;-63
2023/08/13 06:52:58;;;;;;;12.33;7.03;;;;;;;22.72;100.00;94241.44;4910460;28;20389;-63
2023/08/13 06:55:25;;;;;;;10.45;7.60;;;;;;;22.74;100.00;94244.53;4902188;29;20052;-66
2023/08/13 06:57:51;;;;;;;10.73;7.15;;;;;;;24.16;100.00;94232.91;4908518;28;20044;-65
2023/08/13 07:00:20;;;;;;;10.18;6.82;;;;;;;24.73;100.00;94237.69;4911034;29;20048;-64
2023/08/13 07:02:54;;;;;;;9.20;6.55;;;;;;;26.10;100.00;94238.47;4910190;28;20044;-65
2023/08/13 07:05:21;;;;;;;10.93;7.07;;;;;;;27.56;100.00;94231.03;4910988;28;20155;-64
2023/08/13 07:07:49;;;;;;;7.40;6.05;;;;;;;26.94;100.00;94238.94;4909992;28;20048;-64
2023/08/13 07:10:16;;;;;;;7.95;6.32;;;;;;;27.98;100.00;94231.09;4911422;28;20044;-66
2023/08/13 07:12:42;;;;;;;8.98;6.45;;;;;;;27.30;100.00;94235.00;4910487;28;20040;-64
2023/08/13 07:15:10;;;;;;;8.27;6.35;;;;;;;28.02;100.00;94231.59;4911467;28;20052;-64
2023/08/13 07:17:38;;;;;;;8.23;6.20;;;;;;;29.73;89.16;94244.34;4940328;29;20068;-64
2023/08/13 07:20:09;;;;;;;9.43;5.60;;;;;;;29.90;87.35;94238.44;4910404;28;20063;-66
2023/08/13 07:22:39;;;;;;;8.98;5.82;;;;;;;28.74;90.65;94242.84;4910493;28;20052;-65
2023/08/13 07:25:06;;;;;;;7.70;5.93;;;;;;;28.72;96.01;94237.72;4910232;28;20483;-64
2023/08/13 07:27:34;;;;;;;7.88;6.38;;;;;;;29.13;92.12;94230.41;4909047;28;20516;-65
2023/08/13 07:30:01;;;;;;;8.37;6.03;;;;;;;31.02;80.55;94227.41;4910187;28;20052;-65
2023/08/13 07:32:28;;;;;;;8.43;5.80;;;;;;;31.13;76.94;94225.66;4910612;28;20051;-65
2023/08/13 07:34:55;;;;;;;8.10;6.35;;;;;;;31.48;72.66;94226.56;4910098;28;20268;-65
2023/08/13 07:37:22;;;;;;;7.43;5.72;;;;;;;32.30;71.23;94227.34;4911068;28;20052;-66
2023/08/13 07:39:51;;;;;;;6.13;5.50;;;;;;;33.07;69.42;94227.28;4910707;28;20054;-67
2023/08/13 07:42:18;;;;;;;7.33;5.23;;;;;;;34.67;61.68;94220.00;4910232;28;20048;-65
2023/08/13 07:44:45;;;;;;;7.20;5.13;;;;;;;34.53;59.27;94223.03;4910457;28;20044;-63
2023/08/13 07:47:12;;;;;;;7.00;5.20;;;;;;;34.07;61.86;94222.13;4910347;28;20051;-65
2023/08/13 07:49:39;;;;;;;8.23;5.40;;;;;;;34.32;60.42;94216.72;4924757;28;20052;-65
2023/08/13 07:52:05;;;;;;;7.35;5.15;;;;;;;35.06;58.12;94218.69;4908598;28;20046;-65
2023/08/13 07:54:32;;;;;;;6.73;4.80;;;;;;;36.43;57.04;94215.97;4910123;28;20066;-65
2023/08/13 07:56:59;;;;;;;6.30;4.70;;;;;;;37.04;53.68;94208.28;4909439;28;20044;-65
2023/08/13 07:59:26;;;;;;;6.47;4.40;;;;;;;37.48;51.35;94217.03;4939953;28;20044;-65
2023/08/13 08:01:52;;;;;;;7.30;5.20;;;;;;;35.29;53.89;94220.75;4939867;28;20048;-65
2023/08/13 08:04:19;;;;;;;8.13;4.90;;;;;;;33.81;63.22;94219.00;4910593;28;20044;-65
2023/08/13 08:06:46;;;;;;;6.63;4.77;;;;;;;35.07;57.82;94213.72;4910419;28;20508;-67
2023/08/13 08:09:12;;;;;;;8.18;5.10;;;;;;;34.61;58.49;94209.53;4908332;28;20056;-65
2023/08/13 08:11:39;;;;;;;6.50;5.20;;;;;;;33.87;62.29;94206.69;4906502;28;20053;-65
2023/08/13 08:14:06;;;;;;;7.57;5.28;;;;;;;32.94;66.32;94202.53;4895991;28;20041;-68
2023/08/13 08:16:33;;;;;;;6.22;5.22;;;;;;;34.72;61.16;94208.44;4899573;28;20044;-66
2023/08/13 08:19:00;;;;;;;6.67;5.30;;;;;;;35.39;57.93;94202.47;4909188;28;20052;-65
2023/08/13 08:21:27;;;;;;;6.15;5.07;;;;;;;36.05;56.30;94202.63;4910367;28;20056;-65
2023/08/13 08:23:54;;;;;;;6.72;5.03;;;;;;;37.01;50.64;94206.59;4907844;28;20055;-66
2023/08/13 08:26:21;;;;;;;6.70;4.30;;;;;;;37.89;47.77;94200.38;4907809;28;20044;-65
2023/08/13 08:28:47;;;;;;;6.20;4.70;;;;;;;37.20;48.57;94203.22;4910228;28;20044;-65
2023/08/13 08:31:14;;;;;;;6.90;3.93;;;;;;;37.10;47.54;94203.84;4909372;28;20066;-65
2023/08/13 08:33:41;;;;;;;6.15;4.20;;;;;;;37.41;44.07;94202.81;4963900;28;20053;-66
2023/08/13 08:36:08;;;;;;;5.65;3.85;;;;;;;38.87;42.61;94195.22;4919123;28;20059;-65
2023/08/13 08:38:34;;;;;;;6.50;4.15;;;;;;;36.50;45.46;94200.09;4910848;28;20058;-68
2023/08/13 08:41:01;;;;;;;6.05;3.97;;;;;;;38.37;42.30;94196.31;4908826;28;20059;-66
2023/08/13 08:43:33;;;;;;;6.43;3.80;;;;;;;38.80;39.50;94190.34;4910897;28;20468;-66
2023/08/13 08:46:01;;;;;;;5.85;3.70;;;;;;;37.25;42.41;94188.66;4909169;28;20048;-65
2023/08/13 08:48:29;;;;;;;6.30;3.85;;;;;;;38.76;40.63;94182.94;4909686;28;20051;-65
2023/08/13 08:50:56;;;;;;;7.28;3.88;;;;;;;37.59;39.97;94181.47;4910541;28;20052;-68
2023/08/13 08:53:24;;;;;;;6.22;3.83;;;;;;;38.66;38.66;94187.13;4909326;28;20419;-65
2023/08/13 08:55:53;;;;;;;7.30;3.60;;;;;;;37.81;38.32;94181.75;4907415;28;20071;-66
2023/08/13 08:58:19;;;;;;;6.93;3.80;;;;;;;37.94;38.66;94179.28;4909244;28;20075;-66
2023/08/13 09:00:46;;;;;;;6.90;3.70;;;;;;;38.11;38.88;94177.75;4912411;28;20048;-65
2023/08/13 09:03:13;;;;;;;6.18;4.00;;;;;;;39.51;35.95;94180.72;4912020;28;20052;-67
2023/08/13 09:05:41;;;;;;;7.95;3.40;;;;;;;40.91;32.38;94172.16;4912758;28;20198;-65
2023/08/13 09:08:13;;;;;;;6.23;3.50;;;;;;;39.81;34.50;94179.38;4942096;28;20052;-66
2023/08/13 09:10:43;;;;;;;5.50;3.50;;;;;;;37.85;36.90;94168.53;4912667;28;20052;-65
2023/08/13 09:13:10;;;;;;;6.40;3.97;;;;;;;36.76;39.34;94158.75;4906107;28;20044;-64
2023/08/13 09:15:47;;;;;;;7.15;4.10;;;;;;;34.49;46.07;94165.66;4895951;28;20512;-65
2023/08/13 09:18:14;;;;;;;6.90;4.30;;;;;;;31.37;58.23;94170.78;4911733;28;20384;-67
2023/08/13 09:20:45;;;;;;;8.53;4.37;;;;;;;35.15;48.40;94161.06;4913172;28;20591;-68
2023/08/13 09:23:24;;;;;;;6.15;4.07;;;;;;;35.63;47.26;94151.78;4911673;28;20640;-66
2023/08/13 09:25:53;;;;;;;6.93;4.20;;;;;;;36.94;43.60;94143.13;4911734;28;20154;-64
2023/08/13 09:28:20;;;;;;;7.75;4.50;;;;;;;33.49;51.33;94150.38;4912364;28;20046;-65
2023/08/13 09:30:47;;;;;;;5.53;4.10;;;;;;;35.00;48.10;94141.13;4912274;28;20048;-64
2023/08/13 09:33:16;;;;;;;6.90;4.20;;;;;;;35.56;46.60;94136.22;4912370;28;20044;-65
2023/08/13 09:35:45;;;;;;;7.18;3.80;;;;;;;37.04;41.50;94134.66;4912520;28;20098;-65
2023/08/13 09:38:11;;;;;;;5.65;3.80;;;;;;;38.64;39.19;94136.09;4912666;28;20606;-65
2023/08/13 09:40:38;;;;;;;5.38;3.70;;;;;;;38.32;38.88;94137.91;4912510;28;20558;-66
2023/08/13 09:43:08;;;;;;;6.70;3.67;;;;;;;39.08;39.01;94134.41;4911921;28;20056;-65
2023/08/13 09:45:35;;;;;;;6.10;3.60;;;;;;;40.59;35.29;94129.56;4912793;28;20504;-65
2023/08/13 09:48:05;;;;;;;5.13;3.72;;;;;;;40.81;33.47;94128.28;4912676;28;20520;-65
2023/08/13 09:50:37;;;;;;;6.00;4.35;;;;;;;37.59;37.80;94127.06;4911892;28;20052;-67
2023/08/13 09:53:07;;;;;;;5.43;3.80;;;;;;;39.07;37.23;94124.28;4911952;28;20070;-64
2023/08/13 09:55:39;;;;;;;6.88;3.72;;;;;;;37.98;38.65;94128.06;4912767;28;20052;-66
2023/08/13 09:58:07;;;;;;;5.97;4.00;;;;;;;38.78;36.92;94124.97;4911293;28;20047;-64
2023/08/13 10:00:34;;;;;;;6.32;4.30;;;;;;;38.75;37.30;94120.44;4912204;28;20062;-65
2023/08/13 10:03:02;;;;;;;7.25;4.13;;;;;;;37.04;38.94;94117.50;4911661;28;20252;-64
2023/08/13 10:05:29;;;;;;;7.28;4.10;;;;;;;37.06;39.57;94111.19;4912267;28;20055;-67
2023/08/13 10:07:57;;;;;;;5.85;4.40;;;;;;;35.13;44.05;94103.03;4911822;28;20052;-65
2023/08/13 10:10:25;;;;;;;5.77;4.10;;;;;;;37.67;38.95;94104.03;4911331;28;20044;-64
2023/08/13 10:12:52;;;;;;;6.30;4.10;;;;;;;36.10;41.30;94106.63;4902747;28;20056;-65
2023/08/13 10:15:20;;;;;;;5.85;4.38;;;;;;;35.03;43.23;94108.59;4892291;28;20075;-64
2023/08/13 10:17:47;;;;;;;6.95;4.60;;;;;;;32.79;48.47;94103.72;4911819;28;20047;-66
2023/08/13 10:20:17;;;;;;;7.75;4.60;;;;;;;32.99;51.44;94107.81;4911408;28;20056;-64
2023/08/13 10:22:45;;;;;;;7.13;4.97;;;;;;;31.80;53.87;94101.53;4911467;28;20125;-64
2023/08/13 10:25:32;;;;;;;7.65;4.85;;;;;;;33.17;52.98;94100.34;4910300;28;21560;-65
2023/08/13 10:28:00;;;;;;;6.35;4.57;;;;;;;34.78;48.23;94097.81;4911046;28;20066;-65
2023/08/13 10:30:26;;;;;;;7.65;4.60;;;;;;;35.77;43.72;94100.94;4912644;28;20067;-66
2023/08/13 10:32:58;;;;;;;6.70;4.07;;;;;;;35.83;44.13;94090.03;4925645;28;20128;-66
2023/08/13 10:35:39;;;;;;;7.20;4.30;;;;;;;35.66;41.26;94090.72;4911805;28;20448;-65
2023/08/13 10:38:07;;;;;;;8.18;4.70;;;;;;;32.01;50.83;94090.22;4909645;28;20044;-65
2023/08/13 10:40:58;;;;;;;8.90;4.68;;;;;;;31.83;52.50;94092.69;4900041;28;20063;-64
2023/08/13 10:43:25;;;;;;;6.18;4.80;;;;;;;31.43;58.30;94095.66;4910060;28;20688;-66
2023/08/13 10:45:52;;;;;;;6.57;4.88;;;;;;;31.92;56.44;94085.00;4910599;28;20408;-64
2023/08/13 10:48:29;;;;;;;8.07;5.00;;;;;;;32.27;53.96;94086.47;4911126;28;20416;-65
2023/08/13 10:50:58;;;;;;;6.90;4.80;;;;;;;32.25;55.90;94084.16;4911719;28;20071;-65
2023/08/13 10:53:27;;;;;;;6.95;4.50;;;;;;;32.86;54.84;94071.75;4909904;28;20048;-66
2023/08/13 10:55:59;;;;;;;7.93;4.60;;;;;;;33.61;51.68;94071.88;4910478;28;20128;-65
2023/08/13 10:58:35;;;;;;;5.82;4.60;;;;;;;33.81;50.91;94070.97;4910987;28;20055;-66
2023/08/13 11:01:12;;;;;;;7.17;4.40;;;;;;;33.46;50.88;94066.13;4910519;28;20048;-67
2023/08/13 11:03:55;;;;;;;7.32;4.65;;;;;;;32.32;54.83;94054.31;4911267;28;20068;-66
2023/08/13 11:06:24;;;;;;;6.22;4.60;;;;;;;33.90;50.64;94063.22;4891345;28;20592;-65
2023/08/13 11:08:51;;;;;;;8.27;4.70;;;;;;;33.50;48.84;94052.28;4891336;28;20045;-65
2023/08/13 11:11:19;;;;;;;9.55;4.68;;;;;;;31.63;52.86;94050.84;4891817;28;20099;-66
2023/08/13 11:13:48;;;;;;;7.07;4.73;;;;;;;32.55;53.00;94059.41;4892220;28;20041;-64
2023/08/13 11:16:15;;;;;;;6.35;4.53;;;;;;;32.92;51.04;94057.34;4892975;28;20468;-66
2023/08/13 11:18:43;;;;;;;8.20;4.75;;;;;;;31.32;56.34;94056.19;4942585;28;20419;-67
2023/08/13 11:21:11;;;;;;;8.00;4.60;;;;;;;31.50;56.13;94059.44;4901446;28;20051;-64
2023/08/13 11:23:37;;;;;;;8.43;5.00;;;;;;;30.75;58.31;94067.19;4932372;28;20051;-66
2023/08/13 11:26:07;;;;;;;7.80;5.00;;;;;;;30.50;58.33;94056.03;4909902;28;20063;-64
2023/08/13 11:28:35;;;;;;;6.88;5.03;;;;;;;30.44;59.78;94058.22;4910624;28;20447;-64
2023/08/13 11:31:02;;;;;;;9.00;5.13;;;;;;;29.96;62.02;94058.03;4892769;28;20174;-65